createdAt,value
2023-03-04T00:02:02.245Z,101410.25
2023-03-04T00:04:33.568Z,101408.53
2023-03-04T00:07:04.838Z,101408.53
2023-03-04T00:09:36.619Z,101387.38
2023-03-04T00:12:08.540Z,101404.19
2023-03-04T00:14:40.619Z,101397.16
2023-03-04T00:17:11.905Z,101410.38
2023-03-04T00:19:43.209Z,101406.88
2023-03-04T00:22:14.466Z,101395.47
2023-03-04T00:24:45.799Z,101408.63
2023-03-04T00:27:17.123Z,101383.91
2023-03-04T00:29:48.443Z,101403.38
2023-03-04T00:32:19.741Z,101402.50
2023-03-04T00:34:51.128Z,101385.78
2023-03-04T00:37:22.411Z,101361.97
2023-03-04T00:39:53.656Z,101404.28
2023-03-04T00:42:24.906Z,101384.97
2023-03-04T00:44:56.160Z,101374.31
2023-03-04T00:47:27.472Z,101385.81
2023-03-04T00:49:58.741Z,101390.19
2023-03-04T00:52:30.027Z,101380.56
2023-03-04T00:55:01.378Z,101361.97
2023-03-04T00:57:32.723Z,101383.19
2023-03-04T01:00:05.580Z,101363.72
2023-03-04T01:02:36.900Z,101390.19
2023-03-04T01:05:09.318Z,101386.66
2023-03-04T01:07:40.603Z,101372.59
2023-03-04T01:10:14.422Z,101369.97
2023-03-04T01:12:45.809Z,101370.84
2023-03-04T01:15:17.088Z,101365.56
2023-03-04T01:17:48.594Z,101371.72
2023-03-04T01:20:20.332Z,101373.50
2023-03-04T01:22:51.608Z,101368.22
2023-03-04T01:25:22.914Z,101357.63
2023-03-04T01:27:54.240Z,101352.25
2023-03-04T01:30:25.497Z,101351.41
2023-03-04T01:32:56.766Z,101352.28
2023-03-04T01:35:28.205Z,101348.75
2023-03-04T01:37:59.485Z,101333.69
2023-03-04T01:40:31.514Z,101342.56
2023-03-04T01:43:02.785Z,101318.72
2023-03-04T01:45:35.428Z,101317.84
2023-03-04T01:48:09.745Z,101325.88
2023-03-04T01:50:41.105Z,101320.59
2023-03-04T01:53:31.829Z,101320.59
2023-03-04T01:56:35.197Z,101326.72
2023-03-04T01:59:23.212Z,101317.94
2023-03-04T02:02:00.061Z,101303.00
2023-03-04T02:04:34.319Z,101294.19
2023-03-04T02:07:06.002Z,101281.88
2023-03-04T02:09:37.434Z,101295.19
2023-03-04T02:12:08.732Z,101301.34
2023-03-04T02:14:40.257Z,101296.13
2023-03-04T02:17:12.737Z,101295.22
2023-03-04T02:19:53.399Z,101295.22
2023-03-04T02:22:25.767Z,101295.22
2023-03-04T02:25:03.401Z,101296.97
2023-03-04T02:27:34.660Z,101289.13
2023-03-04T02:30:06.673Z,101290.88
2023-03-04T02:32:38.062Z,101272.34
2023-03-04T02:35:17.127Z,101263.56
2023-03-04T02:37:48.952Z,101275.97
2023-03-04T02:40:42.304Z,101283.06
2023-03-04T02:43:13.854Z,101281.31
2023-03-04T02:45:47.889Z,101272.53
2023-03-04T02:48:21.848Z,101273.44
2023-03-04T02:50:54.444Z,101271.66
2023-03-04T02:53:25.762Z,101270.81
2023-03-04T02:55:57.283Z,101266.41
2023-03-04T02:58:28.743Z,101259.34
2023-03-04T03:01:00.134Z,101262.09
2023-03-04T03:03:31.419Z,101259.47
2023-03-04T03:06:02.948Z,101250.72
2023-03-04T03:08:34.248Z,101240.91
2023-03-04T03:11:05.534Z,101239.19
2023-03-04T03:13:36.933Z,101254.22
2023-03-04T03:16:08.205Z,101238.41
2023-03-04T03:18:40.418Z,101247.22
2023-03-04T03:21:11.776Z,101244.59
2023-03-04T03:23:43.336Z,101242.84
2023-03-04T03:26:14.640Z,101237.59
2023-03-04T03:28:45.949Z,101216.41
2023-03-04T03:31:17.266Z,101230.59
2023-03-04T03:33:48.543Z,101229.69
2023-03-04T03:36:19.913Z,101230.56
2023-03-04T03:38:51.207Z,101223.50
2023-03-04T03:41:22.471Z,101222.59
2023-03-04T03:43:53.759Z,101222.47
2023-03-04T03:46:25.109Z,101223.25
2023-03-04T03:48:56.412Z,101227.63
2023-03-04T03:51:27.673Z,101218.78
2023-03-04T03:53:58.948Z,101215.25
2023-03-04T03:56:30.317Z,101220.53
2023-03-04T03:59:01.603Z,101218.75
2023-03-04T04:01:33.580Z,101213.44
2023-03-04T04:04:05.183Z,101213.47
2023-03-04T04:06:36.550Z,101198.44
2023-03-04T04:09:07.849Z,101212.44
2023-03-04T04:11:39.108Z,101230.91
2023-03-04T04:14:13.889Z,101228.19
2023-03-04T04:16:45.193Z,101220.25
2023-03-04T04:19:18.998Z,101214.09
2023-03-04T04:21:50.435Z,101207.88
2023-03-04T04:24:21.744Z,101214.03
2023-03-04T04:26:53.090Z,101207.88
2023-03-04T04:29:24.359Z,101163.72
2023-03-04T04:31:55.709Z,101204.34
2023-03-04T04:34:27.045Z,101205.22
2023-03-04T04:36:58.330Z,101205.22
2023-03-04T04:39:29.696Z,101199.09
2023-03-04T04:42:01.015Z,101196.50
2023-03-04T04:44:32.281Z,101201.78
2023-03-04T04:47:03.579Z,101197.41
2023-03-04T04:49:34.886Z,101197.41
2023-03-04T04:52:06.185Z,101196.53
2023-03-04T04:54:37.455Z,101187.75
2023-03-04T04:57:08.720Z,101195.66
2023-03-04T04:59:40.028Z,101192.16
2023-03-04T05:02:11.296Z,101195.66
2023-03-04T05:04:42.602Z,101192.09
2023-03-04T05:07:13.867Z,101193.84
2023-03-04T05:09:45.974Z,101192.09
2023-03-04T05:12:17.289Z,101178.06
2023-03-04T05:14:48.566Z,101181.59
2023-03-04T05:17:19.920Z,101172.72
2023-03-04T05:19:51.168Z,101183.34
2023-03-04T05:22:22.446Z,101180.69
2023-03-04T05:24:53.761Z,101186.75
2023-03-04T05:27:25.122Z,101176.22
2023-03-04T05:29:59.702Z,101188.50
2023-03-04T05:32:30.976Z,101191.97
2023-03-04T05:35:02.330Z,101170.81
2023-03-04T05:37:33.596Z,101187.59
2023-03-04T05:40:05.842Z,101181.47
2023-03-04T05:42:37.124Z,101180.56
2023-03-04T05:45:08.808Z,101176.16
2023-03-04T05:47:40.085Z,101172.63
2023-03-04T05:50:11.963Z,101177.00
2023-03-04T05:52:43.465Z,101178.78
2023-03-04T05:55:15.050Z,101176.16
2023-03-04T05:57:46.646Z,101177.97
2023-03-04T06:00:18.277Z,101160.31
2023-03-04T06:02:49.644Z,101163.84
2023-03-04T06:05:21.371Z,101164.69
2023-03-04T06:07:52.653Z,101170.88
2023-03-04T06:10:24.046Z,101149.75
2023-03-04T06:12:55.289Z,101192.00
2023-03-04T06:15:26.565Z,101187.63
2023-03-04T06:17:57.829Z,101195.56
2023-03-04T06:20:29.179Z,101194.72
2023-03-04T06:23:00.547Z,101190.38
2023-03-04T06:25:32.282Z,101186.03
2023-03-04T06:28:03.619Z,101186.06
2023-03-04T06:30:34.929Z,101181.72
2023-03-04T06:33:06.211Z,101187.88
2023-03-04T06:35:37.507Z,101194.91
2023-03-04T06:38:08.844Z,101171.16
2023-03-04T06:40:40.180Z,101173.75
2023-03-04T06:43:11.448Z,101195.03
2023-03-04T06:45:42.749Z,101199.44
2023-03-04T06:48:14.120Z,101203.78
2023-03-04T06:50:45.437Z,101206.50
2023-03-04T06:53:16.743Z,101211.75
2023-03-04T06:55:48.337Z,101203.88
2023-03-04T06:58:19.742Z,101203.84
2023-03-04T07:00:51.126Z,101218.75
2023-03-04T07:03:22.443Z,101209.97
2023-03-04T07:05:53.703Z,101190.56
2023-03-04T07:08:24.984Z,101203.81
2023-03-04T07:10:56.257Z,101206.47
2023-03-04T07:13:27.581Z,101209.13
2023-03-04T07:16:00.446Z,101210.03
2023-03-04T07:18:31.792Z,101220.59
2023-03-04T07:21:04.381Z,101225.88
2023-03-04T07:23:36.178Z,101209.22
2023-03-04T07:26:07.674Z,101220.66
2023-03-04T07:28:39.092Z,101232.06
2023-03-04T07:31:21.072Z,101208.22
2023-03-04T07:33:52.548Z,101217.13
2023-03-04T07:36:24.029Z,101225.03
2023-03-04T07:38:55.557Z,101221.44
2023-03-04T07:41:27.953Z,101224.16
2023-03-04T07:43:59.302Z,101210.00
2023-03-04T07:46:30.839Z,101246.06
2023-03-04T07:49:02.093Z,101234.66
2023-03-04T07:51:34.860Z,101252.25
2023-03-04T07:54:06.188Z,101242.59
2023-03-04T07:56:37.745Z,101236.50
2023-03-04T07:59:09.088Z,101240.00
2023-03-04T08:01:40.368Z,101225.94
2023-03-04T08:04:11.646Z,101244.34
2023-03-04T08:06:43.094Z,101230.34
2023-03-04T08:09:14.609Z,101247.91
2023-03-04T08:11:46.126Z,101243.53
2023-03-04T08:14:17.581Z,101237.38
2023-03-04T08:16:48.967Z,101251.47
2023-03-04T08:19:20.386Z,101249.72
2023-03-04T08:21:51.793Z,101248.84
2023-03-04T08:24:23.071Z,101242.72
2023-03-04T08:26:54.388Z,101251.50
2023-03-04T08:29:26.080Z,101241.78
2023-03-04T08:31:58.427Z,101225.94
2023-03-04T08:34:30.209Z,101239.19
2023-03-04T08:37:02.003Z,101241.75
2023-03-04T08:39:35.513Z,101247.88
2023-03-04T08:42:06.890Z,101236.31
2023-03-04T08:44:38.169Z,101245.13
2023-03-04T08:47:10.249Z,101248.59
2023-03-04T08:49:41.622Z,101254.75
2023-03-04T08:52:12.913Z,101252.16
2023-03-04T08:54:44.360Z,101252.03
2023-03-04T08:57:15.741Z,101259.69
2023-03-04T08:59:47.032Z,101255.22
2023-03-04T09:02:18.299Z,101237.50
2023-03-04T09:04:49.580Z,101261.31
2023-03-04T09:07:20.864Z,101251.69
2023-03-04T09:09:52.181Z,101249.09
2023-03-04T09:12:23.658Z,101264.16
2023-03-04T09:15:09.911Z,101266.81
2023-03-04T09:17:41.852Z,101258.16
2023-03-04T09:20:13.468Z,101261.66
2023-03-04T09:22:44.825Z,101255.50
2023-03-04T09:25:16.230Z,101260.84
2023-03-04T09:27:47.650Z,101257.38
2023-03-04T09:30:19.322Z,101266.19
2023-03-04T09:32:50.813Z,101254.78
2023-03-04T09:35:22.194Z,101258.31
2023-03-04T09:37:54.177Z,101268.88
2023-03-04T09:40:37.236Z,101266.22
2023-03-04T09:43:18.304Z,101261.00
2023-03-04T09:45:56.975Z,101211.59
2023-03-04T09:48:34.583Z,101258.41
2023-03-04T09:51:43.537Z,101262.78
2023-03-04T09:54:52.962Z,101268.94
2023-03-04T09:57:42.501Z,101248.81
2023-03-04T10:00:21.642Z,101255.78
2023-03-04T10:03:15.030Z,101268.19
2023-03-04T10:06:06.302Z,101274.44
2023-03-04T10:09:04.460Z,101257.75
2023-03-04T10:11:45.583Z,101247.97
2023-03-04T10:14:22.799Z,101263.00
2023-03-04T10:17:11.537Z,101244.41
2023-03-04T10:20:05.654Z,101264.78
2023-03-04T10:22:43.869Z,101257.81
2023-03-04T10:25:22.266Z,101277.19
2023-03-04T10:27:59.577Z,101248.97
2023-03-04T10:30:53.244Z,101266.69
2023-03-04T10:33:30.955Z,101263.22
2023-03-04T10:36:09.549Z,101242.13
2023-03-04T10:38:42.615Z,101233.31
2023-03-04T10:41:17.143Z,101267.72
2023-03-04T10:44:10.371Z,101258.03
2023-03-04T10:46:47.006Z,101246.59
2023-03-04T10:49:20.012Z,101265.13
2023-03-04T10:52:02.835Z,101247.56
2023-03-04T10:54:47.221Z,101262.53
2023-03-04T10:57:38.381Z,101245.81
2023-03-04T11:00:18.475Z,101254.63
2023-03-04T11:02:50.168Z,101245.03
2023-03-04T11:05:25.324Z,101245.06
2023-03-04T11:07:59.843Z,101240.63
2023-03-04T11:10:37.454Z,101254.75
2023-03-04T11:13:11.495Z,101244.22
2023-03-04T11:16:24.709Z,101245.16
2023-03-04T11:19:03.812Z,101254.84
2023-03-04T11:21:40.317Z,101243.38
2023-03-04T11:24:28.377Z,101257.41
2023-03-04T11:27:15.530Z,101248.69
2023-03-04T11:30:15.514Z,101238.97
2023-03-04T11:32:51.568Z,101219.75
2023-03-04T11:35:32.176Z,101243.56
2023-03-04T11:38:20.493Z,101228.66
2023-03-04T11:40:57.490Z,101231.34
2023-03-04T11:43:36.422Z,101236.59
2023-03-04T11:46:32.040Z,101229.53
2023-03-04T11:49:07.041Z,101229.53
2023-03-04T11:51:53.939Z,101228.63
2023-03-04T11:54:43.305Z,101226.84
2023-03-04T11:57:40.303Z,101223.25
2023-03-04T12:00:29.640Z,101230.38
2023-03-04T12:03:28.882Z,101222.50
2023-03-04T12:06:18.458Z,101224.25
2023-03-04T12:09:03.090Z,101220.75
2023-03-04T12:11:58.185Z,101199.59
2023-03-04T12:15:06.845Z,101214.56
2023-03-04T12:18:05.184Z,101215.44
2023-03-04T12:20:51.504Z,101210.16
2023-03-04T12:23:41.235Z,101207.56
2023-03-04T12:26:21.414Z,101208.50
2023-03-04T12:29:22.416Z,101199.72
2023-03-04T12:32:06.664Z,101188.28
2023-03-04T12:34:56.457Z,101205.94
2023-03-04T12:37:36.667Z,101197.09
2023-03-04T12:40:28.690Z,101199.72
2023-03-04T12:43:26.823Z,101196.09
2023-03-04T12:45:58.153Z,101203.06
2023-03-04T12:48:35.300Z,101191.56
2023-03-04T12:51:22.971Z,101216.09
2023-03-04T12:54:12.209Z,101165.91
2023-03-04T12:56:48.963Z,101194.13
2023-03-04T12:59:23.683Z,101185.25
2023-03-04T13:02:16.117Z,101196.72
2023-03-04T13:05:02.832Z,101192.31
2023-03-04T13:07:52.614Z,101202.00
2023-03-04T13:10:24.124Z,101193.22
2023-03-04T13:12:58.196Z,101195.03
2023-03-04T13:15:34.000Z,101181.94
2023-03-04T13:18:24.359Z,101182.94
2023-03-04T13:21:14.101Z,101199.69
2023-03-04T13:23:45.386Z,101191.78
2023-03-04T13:26:29.650Z,101193.53
2023-03-04T13:29:13.212Z,101187.34
2023-03-04T13:31:59.982Z,101179.41
2023-03-04T13:35:06.770Z,101178.50
2023-03-04T13:37:38.196Z,101160.84
2023-03-04T13:40:23.183Z,101177.56
2023-03-04T13:42:54.529Z,101184.59
2023-03-04T13:45:36.956Z,101174.97
2023-03-04T13:48:24.778Z,101177.63
2023-03-04T13:50:56.489Z,101152.91
2023-03-04T13:53:33.378Z,101176.63
2023-03-04T13:56:09.074Z,101181.00
2023-03-04T13:58:41.440Z,101170.34
2023-03-04T14:01:22.362Z,101156.31
2023-03-04T14:03:54.148Z,101175.66
2023-03-04T14:06:30.483Z,101168.59
2023-03-04T14:09:12.267Z,101170.41
2023-03-04T14:11:44.288Z,101188.84
2023-03-04T14:14:20.228Z,101184.44
2023-03-04T14:17:01.274Z,101174.81
2023-03-04T14:19:38.447Z,101160.69
2023-03-04T14:22:40.968Z,101158.00
2023-03-04T14:25:15.212Z,101177.41
2023-03-04T14:27:47.481Z,101180.88
2023-03-04T14:30:39.497Z,101172.94
2023-03-04T14:33:21.477Z,101183.47
2023-03-04T14:35:59.072Z,101187.84
2023-03-04T14:38:38.160Z,101181.59
2023-03-04T14:41:18.497Z,101158.63
2023-03-04T14:44:01.149Z,101164.75
2023-03-04T14:46:40.127Z,101181.47
2023-03-04T14:49:14.028Z,101177.03
2023-03-04T14:51:53.964Z,101171.72
2023-03-04T14:54:32.926Z,101150.50
2023-03-04T14:57:21.085Z,101168.25
2023-03-04T14:59:53.909Z,101160.31
2023-03-04T15:02:41.109Z,101155.94
2023-03-04T15:05:25.884Z,101173.44
2023-03-04T15:08:04.196Z,101173.44
2023-03-04T15:10:37.909Z,101160.28
2023-03-04T15:13:09.826Z,101164.56
2023-03-04T15:15:46.703Z,101168.09
2023-03-04T15:18:27.624Z,101174.25
2023-03-04T15:21:25.768Z,101166.34
2023-03-04T15:23:57.148Z,101172.47
2023-03-04T15:26:28.532Z,101167.06
2023-03-04T15:28:59.903Z,101159.06
2023-03-04T15:31:31.668Z,101174.06
2023-03-04T15:34:02.985Z,101168.69
2023-03-04T15:36:34.275Z,101183.63
2023-03-04T15:39:05.736Z,101164.19
2023-03-04T15:41:37.099Z,101177.41
2023-03-04T15:44:09.846Z,101173.84
2023-03-04T15:46:41.185Z,101173.81
2023-03-04T15:49:12.544Z,101150.00
2023-03-04T15:51:43.920Z,101146.50
2023-03-04T15:54:15.636Z,101160.63
2023-03-04T15:56:46.997Z,101154.38
2023-03-04T15:59:18.885Z,101159.63
2023-03-04T16:01:50.351Z,101160.56
2023-03-04T16:04:22.345Z,101144.72
2023-03-04T16:06:56.580Z,101144.81
2023-03-04T16:09:27.868Z,101162.31
2023-03-04T16:12:01.872Z,101165.81
2023-03-04T16:14:33.170Z,101165.78
2023-03-04T16:17:04.581Z,101162.28
2023-03-04T16:19:36.032Z,101158.75
2023-03-04T16:22:07.482Z,101161.38
2023-03-04T16:24:38.864Z,101161.34
2023-03-04T16:27:20.008Z,101163.94
2023-03-04T16:29:51.372Z,101171.81
2023-03-04T16:32:24.515Z,101159.50
2023-03-04T16:34:55.810Z,101147.22
2023-03-04T16:37:27.094Z,101152.47
2023-03-04T16:39:59.936Z,101145.38
2023-03-04T16:42:31.198Z,101125.03
2023-03-04T16:45:02.968Z,101154.06
2023-03-04T16:47:34.423Z,101098.44
2023-03-04T16:50:05.901Z,101138.03
2023-03-04T16:52:37.260Z,101147.75
2023-03-04T16:55:16.309Z,101144.22
2023-03-04T16:57:48.075Z,101121.22
2023-03-04T17:00:22.094Z,101150.28
2023-03-04T17:02:57.216Z,101133.47
2023-03-04T17:05:31.379Z,101139.66
2023-03-04T17:08:03.042Z,101124.59
2023-03-04T17:10:34.733Z,101149.25
2023-03-04T17:13:06.135Z,101131.50
2023-03-04T17:15:37.441Z,101149.16
2023-03-04T17:18:09.197Z,101126.16
2023-03-04T17:20:40.573Z,101152.59
2023-03-04T17:23:11.826Z,101148.22
2023-03-04T17:25:43.083Z,101147.31
2023-03-04T17:28:14.352Z,101156.94
2023-03-04T17:30:45.601Z,101164.81
2023-03-04T17:33:16.966Z,101134.88
2023-03-04T17:35:48.808Z,101150.78
2023-03-04T17:38:20.082Z,101132.19
2023-03-04T17:40:51.396Z,101156.84
2023-03-04T17:43:23.010Z,101162.06
2023-03-04T17:46:05.750Z,101159.41
2023-03-04T17:48:37.012Z,101155.88
2023-03-04T17:51:10.325Z,101163.75
2023-03-04T17:53:41.647Z,101161.09
2023-03-04T17:56:13.184Z,101146.91
2023-03-04T17:58:44.544Z,101154.00
2023-03-04T18:01:20.243Z,101143.38
2023-03-04T18:03:52.593Z,101157.50
2023-03-04T18:06:25.071Z,101152.22
2023-03-04T18:08:56.354Z,101158.31
2023-03-04T18:11:28.816Z,101162.69
2023-03-04T18:14:00.215Z,101154.72
2023-03-04T18:16:31.866Z,101162.63
2023-03-04T18:19:04.562Z,101157.31
2023-03-04T18:21:35.902Z,101164.34
2023-03-04T18:24:07.401Z,101165.19
2023-03-04T18:26:38.736Z,101154.66
2023-03-04T18:29:10.035Z,101142.25
2023-03-04T18:31:41.391Z,101130.75
2023-03-04T18:34:12.652Z,101152.91
2023-03-04T18:36:43.950Z,101154.63
2023-03-04T18:39:17.361Z,101159.88
2023-03-04T18:41:48.699Z,101156.34
2023-03-04T18:44:20.206Z,101152.75
2023-03-04T18:46:55.730Z,101144.91
2023-03-04T18:49:27.139Z,101159.78
2023-03-04T18:51:58.550Z,101160.59
2023-03-04T18:54:29.834Z,101173.72
2023-03-04T18:57:08.521Z,101153.53
2023-03-04T18:59:59.085Z,101164.91
2023-03-04T19:02:45.601Z,101160.50
2023-03-04T19:05:21.870Z,101153.41
2023-03-04T19:07:53.178Z,101161.09
2023-03-04T19:10:25.477Z,101156.59
2023-03-04T19:12:59.305Z,101171.44
2023-03-04T19:15:31.003Z,101150.38
2023-03-04T19:18:02.568Z,101170.69
2023-03-04T19:20:34.031Z,101161.97
2023-03-04T19:23:09.926Z,101153.22
2023-03-04T19:25:41.456Z,101149.69
2023-03-04T19:28:12.852Z,101154.94
2023-03-04T19:30:44.339Z,101144.41
2023-03-04T19:33:15.648Z,101156.66
2023-03-04T19:35:47.581Z,101149.66
2023-03-04T19:38:18.970Z,101149.59
2023-03-04T19:40:50.467Z,101124.91
2023-03-04T19:43:21.866Z,101140.69
2023-03-04T19:45:56.694Z,101159.22
2023-03-04T19:48:28.414Z,101160.16
2023-03-04T19:50:59.779Z,101164.53
2023-03-04T19:53:34.600Z,101159.28
2023-03-04T19:56:06.631Z,101167.16
2023-03-04T19:58:38.007Z,101159.34
2023-03-04T20:01:35.711Z,101161.97
2023-03-04T20:04:09.921Z,101152.28
2023-03-04T20:06:44.604Z,101154.91
2023-03-04T20:09:17.499Z,101155.84
2023-03-04T20:11:59.055Z,101158.47
2023-03-04T20:14:36.150Z,101132.06
2023-03-04T20:17:07.977Z,101155.06
2023-03-04T20:19:39.413Z,101157.69
2023-03-04T20:22:10.989Z,101162.06
2023-03-04T20:24:42.280Z,101160.34
2023-03-04T20:27:15.349Z,101143.63
2023-03-04T20:29:48.799Z,101149.75
2023-03-04T20:32:20.161Z,101156.81
2023-03-04T20:34:54.109Z,101161.19
2023-03-04T20:37:25.466Z,101162.03
2023-03-04T20:39:58.009Z,101147.16
2023-03-04T20:42:29.491Z,101151.53
2023-03-04T20:45:00.902Z,101107.44
2023-03-04T20:47:32.388Z,101148.03
2023-03-04T20:50:05.826Z,101155.91
2023-03-04T20:52:37.182Z,101158.50
2023-03-04T20:55:08.916Z,101151.50
2023-03-04T20:57:40.318Z,101153.22
2023-03-04T21:00:12.195Z,101137.47
2023-03-04T21:02:43.554Z,101127.75
2023-03-04T21:05:14.904Z,101132.19
2023-03-04T21:07:46.238Z,101119.97
2023-03-04T21:10:19.563Z,101104.91
2023-03-04T21:12:51.490Z,101131.25
2023-03-04T21:15:22.898Z,101111.97
2023-03-04T21:17:54.571Z,101123.44
2023-03-04T21:20:26.010Z,101126.94
2023-03-04T21:22:57.295Z,101119.06
2023-03-04T21:25:28.647Z,101126.06
2023-03-04T21:28:00.005Z,101130.44
2023-03-04T21:30:31.361Z,101130.41
2023-03-04T21:33:04.488Z,101123.34
2023-03-04T21:35:36.991Z,101132.16
2023-03-04T21:38:08.400Z,101132.13
2023-03-04T21:40:39.827Z,101126.66
2023-03-04T21:43:11.161Z,101108.94
2023-03-04T21:45:42.427Z,101131.53
2023-03-04T21:48:13.771Z,101126.06
2023-03-04T21:50:45.279Z,101120.69
2023-03-04T21:53:21.463Z,101118.03
2023-03-04T21:55:53.355Z,101095.09
2023-03-04T21:58:25.390Z,101117.19
2023-03-04T22:00:59.009Z,101116.34
2023-03-04T22:03:30.407Z,101116.44
2023-03-04T22:06:05.083Z,101112.97
2023-03-04T22:08:37.870Z,101122.66
2023-03-04T22:11:10.939Z,101113.88
2023-03-04T22:13:42.326Z,101116.47
2023-03-04T22:16:13.792Z,101109.31
2023-03-04T22:18:45.189Z,101107.47
2023-03-04T22:21:18.960Z,101105.72
2023-03-04T22:23:50.269Z,101110.09
2023-03-04T22:26:31.900Z,101097.78
2023-03-04T22:29:04.679Z,101110.97
2023-03-04T22:31:37.998Z,101106.50
2023-03-04T22:34:12.797Z,101107.38
2023-03-04T22:36:45.925Z,101106.50
2023-03-04T22:39:22.823Z,101088.06
2023-03-04T22:41:54.162Z,101101.31
2023-03-04T22:44:25.619Z,101094.28
2023-03-04T22:46:56.957Z,101094.31
2023-03-04T22:49:28.336Z,101097.84
2023-03-04T22:51:59.703Z,101097.81
2023-03-04T22:54:30.975Z,101091.69
2023-03-04T22:57:02.226Z,101092.56
2023-03-04T22:59:33.512Z,101089.06
2023-03-04T23:02:04.940Z,101082.94
2023-03-04T23:04:36.358Z,101066.31
2023-03-04T23:07:07.614Z,101068.97
2023-03-04T23:09:38.940Z,101063.72
2023-03-04T23:12:10.214Z,101062.84
2023-03-04T23:14:43.460Z,101064.59
2023-03-04T23:17:14.785Z,101057.59
2023-03-04T23:19:46.046Z,101052.38
2023-03-04T23:22:17.309Z,101048.75
2023-03-04T23:24:48.784Z,101037.38
2023-03-04T23:27:20.053Z,101051.41
2023-03-04T23:29:52.015Z,101047.00
2023-03-04T23:32:23.431Z,101047.81
2023-03-04T23:34:56.064Z,101038.06
2023-03-04T23:37:27.347Z,101047.81
2023-03-04T23:39:58.661Z,101047.84
2023-03-04T23:42:29.948Z,101032.84
2023-03-04T23:45:01.229Z,101047.88
2023-03-04T23:47:32.521Z,101046.09
2023-03-04T23:50:04.195Z,101034.72
2023-03-04T23:52:35.555Z,101029.44
2023-03-04T23:55:07.088Z,101038.16
2023-03-04T23:57:38.379Z,101032.91
